Crew | Aerofun Virtual



 METAR AND TAF INFORMATION
METAR FOR GEML
ADDS - METARS form results

(1656 UTC 17 February 2020)
Data provider http://aviationweather.gov/metar/data/
 
METAR text: GEML 171630Z 28007KT 230V320 9999 FEW010 20/11 Q1026
Conditions at: GEML (MELILLA , ES) observed 1630 UTC 17 February 2020
Temperature: 20.0°C (68°F)
Dewpoint: 11.0°C (52°F) [RH = 56%]
Pressure (altimeter): 30.30 inches Hg (1026.0 mb)
Winds: from the W (280 degrees) at 8 MPH (7 knots; 3.6 m/s)
Visibility: 6 or more miles (10+ km)
Ceiling: at least 12,000 feet AGL
Clouds: few clouds at 1000 feet AGL
Weather: no significant weather observed at this time

METAR text: GEML 171600Z 28009KT 230V320 9999 FEW010 20/11 Q1026
Conditions at: GEML (MELILLA , ES) observed 1600 UTC 17 February 2020
Temperature: 20.0°C (68°F)
Dewpoint: 11.0°C (52°F) [RH = 56%]
Pressure (altimeter): 30.30 inches Hg (1026.0 mb)
Winds: from the W (280 degrees) at 10 MPH (9 knots; 4.6 m/s)
Visibility: 6 or more miles (10+ km)
Ceiling: at least 12,000 feet AGL
Clouds: few clouds at 1000 feet AGL
Weather: no significant weather observed at this time

Forecast for: GEML (MELILLA , ES)
Text: TAF GEML 171400Z 1715/1815 22004KT 9000 FEW008 TX19/1715Z TN12/1806Z
Forecast period: 1500 UTC 17 February 2020 to 1500 UTC 18 February 2020
Forecast type: FROM: standard forecast or significant change
Winds: from the SW (220 degrees) at 5 MPH (4 knots; 2.1 m/s)
Visibility: 6 miles (9 km)
Ceiling: at least 12,000 feet AGL
Clouds: few clouds at 800 feet AGL
Weather: no significant weather forecast for this period

 AIRPORT MAP

 RUNWAY INFORMATION
Runway 15 Runway length 4685 ft Runway width 148 ft
Runway elevation 156 ft Runway displaced threshold 755 ft Runway heading 146
Runway 33 Runway length 4685 ft Runway width 148 ft
Runway elevation 133 ft Runway displaced threshold 0 ft Runway heading 326

 AIRPORT FREQUENCIES
Type GND Name GND Frequency 121.7 MHZ
Type TWR Name TWR Frequency 118.5 MHZ

 AIRPORT NEAR NAVIGATION AIDS
Type VOR-DME Name Melilla Frequency 114250 KHZ
Type DME Name Melilla Frequency 117400 KHZ